createdAt,value
2022-12-06T00:13:18.767Z,36.76921
2022-12-06T00:28:21.186Z,2.53581
2022-12-06T00:43:23.429Z,0
2022-12-06T00:58:25.747Z,0
2022-12-06T01:13:28.255Z,0
2022-12-06T01:28:30.550Z,0
2022-12-06T01:43:32.907Z,0
2022-12-06T01:58:35.216Z,0
2022-12-06T02:13:37.507Z,0
2022-12-06T02:28:39.776Z,0
2022-12-06T02:43:42.089Z,0
2022-12-06T02:58:44.383Z,0
2022-12-06T03:13:46.656Z,0
2022-12-06T03:28:48.901Z,0
2022-12-06T03:43:51.340Z,0
2022-12-06T03:58:53.687Z,0
2022-12-06T04:13:56.017Z,0
2022-12-06T04:28:58.294Z,0
2022-12-06T04:44:00.524Z,0
2022-12-06T04:59:02.854Z,0
2022-12-06T05:14:05.200Z,0
2022-12-06T05:29:07.461Z,0
2022-12-06T05:44:09.969Z,0
2022-12-06T05:59:12.338Z,0
2022-12-06T06:14:14.607Z,0
2022-12-06T06:29:17.109Z,0
2022-12-06T06:44:19.438Z,0
2022-12-06T06:59:21.805Z,0
2022-12-06T07:14:24.097Z,0
2022-12-06T07:29:26.402Z,0
2022-12-06T07:44:28.900Z,0
2022-12-06T07:59:31.207Z,0
2022-12-06T08:14:33.575Z,0
2022-12-06T08:29:35.858Z,0
2022-12-06T08:44:38.143Z,0
2022-12-06T08:59:40.443Z,0
2022-12-06T09:14:42.884Z,0
2022-12-06T09:29:45.240Z,0
2022-12-06T09:44:47.510Z,0
2022-12-06T09:59:49.834Z,0
2022-12-06T10:14:52.134Z,0
2022-12-06T10:29:54.494Z,0
2022-12-06T10:44:56.820Z,0
2022-12-06T11:00:03.078Z,0
2022-12-06T11:15:06.122Z,0
2022-12-06T11:30:08.456Z,0
2022-12-06T11:45:10.756Z,0
2022-12-06T12:00:13.007Z,0
2022-12-06T12:15:15.357Z,0
2022-12-06T12:30:17.645Z,0
2022-12-06T12:45:19.964Z,0
2022-12-06T13:00:22.309Z,0
2022-12-06T13:15:24.647Z,0
2022-12-06T13:30:27.042Z,0
2022-12-06T13:45:29.418Z,0
2022-12-06T14:00:31.717Z,0
2022-12-06T14:15:33.967Z,0
2022-12-06T14:30:36.310Z,0
2022-12-06T14:45:38.689Z,0
2022-12-06T15:00:40.967Z,1.2679
2022-12-06T15:15:43.523Z,17.75065
2022-12-06T15:30:45.931Z,87.48536
2022-12-06T15:45:48.255Z,248.50914
2022-12-06T16:00:50.539Z,489.41086
2022-12-06T16:15:52.911Z,792.43988
2022-12-06T16:30:55.310Z,954.73157
2022-12-06T16:45:57.596Z,1278.047
2022-12-06T17:00:59.984Z,1581.07605
2022-12-06T17:16:02.485Z,1397.22998
2022-12-06T17:31:04.839Z,2296.17383
2022-12-06T17:46:07.279Z,2996.05664
2022-12-06T18:01:09.744Z,3931.76978
2022-12-06T18:16:12.068Z,4949.89648
2022-12-06T18:31:14.389Z,5436.77148
2022-12-06T18:46:16.848Z,4322.28418
2022-12-06T19:01:19.514Z,6186.10254
2022-12-06T19:16:21.928Z,6154.40527
2022-12-06T19:31:24.216Z,6732.56934
2022-12-06T19:46:26.696Z,6411.78955
2022-12-06T20:01:29.071Z,7664.47852
2022-12-06T20:16:31.366Z,7239.73096
2022-12-06T20:31:33.818Z,6402.91406
2022-12-06T20:46:36.239Z,6680.58496
2022-12-06T21:01:38.685Z,6761.73096
2022-12-06T21:16:41.068Z,5686.54834
2022-12-06T21:31:43.541Z,4914.39502
2022-12-06T21:46:45.981Z,4185.35059
2022-12-06T22:01:48.399Z,3981.21802
2022-12-06T22:16:50.762Z,2923.78613
2022-12-06T22:31:53.107Z,2291.10229
2022-12-06T22:46:55.576Z,2365.90845
2022-12-06T23:01:57.992Z,1639.39966
2022-12-06T23:17:00.393Z,1186.75793
2022-12-06T23:32:02.793Z,713.82983
2022-12-06T23:47:05.079Z,296.68948
